Time;durP1;ratioP1;P1;durP2;ratioP2;P2;SDS_P1;SDS_P2;PMS_P1;PMS_P2;Temp;Humidity;BMP_temperature;BMP_pressure;BME280_temperature;BME280_humidity;BME280_pressure;Samples;Min_cycle;Max_cycle;Signal;HPM_P1;HPM_P2
2024/01/12 00:02:04;;;;;;;;;8.00;8.00;;;;;0.62;72.72;101519.91;5097589;28;8823;-58
2024/01/12 00:04:32;;;;;;;;;10.80;10.40;;;;;0.61;73.15;101529.50;5097309;28;8811;-59
2024/01/12 00:06:59;;;;;;;;;10.40;9.20;;;;;0.62;73.42;101546.09;5097273;28;8855;-58
2024/01/12 00:09:27;;;;;;;;;14.60;12.20;;;;;0.62;73.57;101544.31;5097520;28;8811;-58
2024/01/12 00:11:55;;;;;;;;;8.60;8.60;;;;;0.62;73.16;101536.47;5097279;28;9496;-60
2024/01/12 00:14:23;;;;;;;;;11.20;9.20;;;;;0.62;73.48;101541.72;5096613;28;8808;-57
2024/01/12 00:16:51;;;;;;;;;14.00;13.60;;;;;0.63;73.66;101548.69;5097046;28;8836;-57
2024/01/12 00:19:19;;;;;;;;;6.80;5.40;;;;;0.63;73.00;101551.31;5097275;28;8854;-57
2024/01/12 00:21:46;;;;;;;;;18.00;15.00;;;;;0.65;73.19;101551.28;5097669;28;9701;-59
2024/01/12 00:24:14;;;;;;;;;13.80;12.60;;;;;0.64;73.22;101542.56;5096860;28;8945;-58
2024/01/12 00:26:42;;;;;;;;;12.40;11.80;;;;;0.65;73.31;101546.03;5096223;28;8842;-57
2024/01/12 00:29:10;;;;;;;;;6.00;6.00;;;;;0.66;73.88;101553.91;5096832;28;8837;-57
2024/01/12 00:31:38;;;;;;;;;14.20;12.40;;;;;0.66;73.28;101547.78;5096423;28;8917;-60
2024/01/12 00:34:06;;;;;;;;;15.40;12.80;;;;;0.64;73.55;101553.06;5095273;28;8863;-58
2024/01/12 00:36:34;;;;;;;;;15.40;12.00;;;;;0.65;73.85;101551.28;5094233;28;8929;-58
2024/01/12 00:39:03;;;;;;;;;11.00;10.80;;;;;0.66;73.74;101555.63;5095323;28;8865;-59
2024/01/12 00:41:31;;;;;;;;;10.00;9.00;;;;;0.65;73.53;101552.16;5095499;28;8840;-58
2024/01/12 00:43:59;;;;;;;;;12.60;12.00;;;;;0.67;73.98;101550.38;5096608;28;8844;-58
2024/01/12 00:46:27;;;;;;;;;16.00;15.00;;;;;0.67;73.85;101533.78;5097197;28;8837;-59
2024/01/12 00:48:55;;;;;;;;;15.60;9.40;;;;;0.67;73.93;101526.81;5097161;28;8916;-58
2024/01/12 00:51:23;;;;;;;;;23.40;19.80;;;;;0.66;73.77;101530.31;5097028;28;8895;-58
2024/01/12 00:53:51;;;;;;;;;16.00;14.00;;;;;0.67;73.42;101533.78;5097160;28;8843;-58
2024/01/12 00:56:19;;;;;;;;;8.40;7.60;;;;;0.66;73.64;101543.41;5097293;28;8836;-58
2024/01/12 00:58:47;;;;;;;;;18.00;15.80;;;;;0.67;74.02;101534.66;5096481;28;8825;-58
2024/01/12 01:01:15;;;;;;;;;14.80;14.20;;;;;0.67;74.17;101523.28;5097272;28;8824;-58
2024/01/12 01:03:42;;;;;;;;;8.40;6.40;;;;;0.69;73.47;101532.03;5097197;28;8815;-58
2024/01/12 01:06:10;;;;;;;;;18.80;17.20;;;;;0.69;73.52;101532.88;5096934;28;8820;-57
2024/01/12 01:08:38;;;;;;;;;11.00;9.00;;;;;0.69;73.51;101538.13;5097138;28;8819;-59
2024/01/12 01:11:06;;;;;;;;;3.00;3.00;;;;;0.68;73.21;101536.38;5097247;28;8814;-59
2024/01/12 01:13:36;;;;;;;;;16.20;14.60;;;;;0.68;73.34;101532.91;5096778;28;8819;-59
2024/01/12 01:16:03;;;;;;;;;14.00;13.40;;;;;0.66;74.40;101522.44;5096442;28;8814;-59
2024/01/12 01:18:32;;;;;;;;;12.60;11.20;;;;;0.67;73.70;101529.41;5096951;28;8869;-59
2024/01/12 01:21:04;;;;;;;;;12.80;11.00;;;;;0.68;73.85;101531.16;5096881;28;8931;-59
2024/01/12 01:23:32;;;;;;;;;14.80;14.40;;;;;0.68;73.81;101536.38;5096912;28;8822;-58
2024/01/12 01:26:00;;;;;;;;;15.20;12.60;;;;;0.69;74.04;101527.63;5095938;28;8833;-58
2024/01/12 01:28:27;;;;;;;;;14.40;9.80;;;;;0.69;74.01;101527.63;5096149;28;8930;-58
2024/01/12 01:30:55;;;;;;;;;16.80;16.00;;;;;0.68;74.46;101527.69;5096590;28;8873;-59
2024/01/12 01:33:23;;;;;;;;;11.20;10.40;;;;;0.69;74.30;101524.16;5096197;28;8881;-60
2024/01/12 01:35:51;;;;;;;;;17.80;14.60;;;;;0.68;73.80;101525.91;5096266;28;8839;-59
2024/01/12 01:38:19;;;;;;;;;19.20;12.80;;;;;0.69;74.08;101530.25;5095872;28;8830;-58
2024/01/12 01:40:46;;;;;;;;;13.20;11.00;;;;;0.70;73.99;101523.28;5096086;28;8823;-57
2024/01/12 01:43:15;;;;;;;;;14.40;12.60;;;;;0.69;73.76;101532.88;5096386;28;8886;-57
2024/01/12 01:45:41;;;;;;;;;13.40;12.20;;;;;0.69;74.09;101535.50;5096389;28;8826;-59
2024/01/12 01:48:10;;;;;;;;;13.40;13.00;;;;;0.68;73.93;101536.38;5096452;28;8824;-58
2024/01/12 01:50:37;;;;;;;;;13.00;12.20;;;;;0.70;73.95;101539.00;5096540;28;8820;-59
2024/01/12 01:53:05;;;;;;;;;14.20;13.00;;;;;0.71;74.12;101540.72;5096178;28;8820;-59
2024/01/12 01:55:33;;;;;;;;;19.40;15.20;;;;;0.72;74.56;101538.09;5096241;28;8938;-57
2024/01/12 01:58:01;;;;;;;;;7.40;7.00;;;;;0.73;74.32;101538.94;5095765;28;8811;-59
2024/01/12 02:00:29;;;;;;;;;5.80;5.60;;;;;0.73;74.08;101538.94;5095651;28;8821;-59
2024/01/12 02:02:56;;;;;;;;;15.60;11.60;;;;;0.73;73.83;101539.81;5096075;28;8836;-58
2024/01/12 02:05:25;;;;;;;;;18.60;15.80;;;;;0.72;74.57;101530.22;5096591;28;8833;-59
2024/01/12 02:07:52;;;;;;;;;6.80;6.80;;;;;0.71;74.58;101544.19;5096440;28;8833;-58
2024/01/12 02:10:20;;;;;;;;;14.80;14.60;;;;;0.70;74.23;101550.31;5095844;28;8827;-58
2024/01/12 02:12:48;;;;;;;;;7.40;6.40;;;;;0.69;74.64;101535.50;5096113;28;8830;-59
2024/01/12 02:15:17;;;;;;;;;14.20;12.20;;;;;0.70;74.33;101539.00;5095876;28;8825;-59
2024/01/12 02:17:45;;;;;;;;;13.40;11.40;;;;;0.70;74.08;101539.84;5095327;28;8846;-59
2024/01/12 02:20:13;;;;;;;;;9.20;8.20;;;;;0.72;74.71;101537.22;5095744;28;9527;-59
2024/01/12 02:22:41;;;;;;;;;12.60;11.40;;;;;0.73;74.96;101544.19;5094845;28;8856;-58
2024/01/12 02:25:08;;;;;;;;;18.00;16.40;;;;;0.74;73.99;101543.28;5095041;28;8918;-59
2024/01/12 02:27:36;;;;;;;;;19.20;15.20;;;;;0.74;74.31;101544.16;5094452;28;8844;-59
2024/01/12 02:30:04;;;;;;;;;14.60;13.80;;;;;0.74;74.39;101546.78;5094534;28;8889;-60
2024/01/12 02:32:32;;;;;;;;;11.40;9.60;;;;;0.76;74.53;101547.63;5095744;28;8807;-60
2024/01/12 02:35:00;;;;;;;;;14.80;13.60;;;;;0.77;74.46;101546.72;5094601;28;8832;-59
2024/01/12 02:37:28;;;;;;;;;10.00;9.00;;;;;0.79;74.70;101552.84;5095650;28;8800;-60
2024/01/12 02:39:55;;;;;;;;;15.20;9.20;;;;;0.79;74.08;101537.13;5099312;28;8815;-60
2024/01/12 02:42:23;;;;;;;;;16.20;15.00;;;;;0.81;74.94;101537.06;5098375;28;8868;-58
2024/01/12 02:44:51;;;;;;;;;10.40;10.00;;;;;0.83;74.94;101537.94;5098694;28;8813;-60
2024/01/12 02:47:18;;;;;;;;;13.20;11.20;;;;;0.82;74.28;101547.53;5099546;28;8845;-58
2024/01/12 02:49:46;;;;;;;;;9.60;8.60;;;;;0.82;73.98;101544.94;5099426;28;8837;-58
2024/01/12 02:52:14;;;;;;;;;9.20;6.60;;;;;0.84;74.69;101542.28;5099845;28;8830;-57
2024/01/12 02:54:41;;;;;;;;;11.40;9.40;;;;;0.84;74.97;101534.44;5098826;28;8955;-59
2024/01/12 02:57:12;;;;;;;;;14.80;12.80;;;;;0.84;75.00;101537.91;5098683;28;9676;-59
2024/01/12 02:59:40;;;;;;;;;12.40;11.20;;;;;0.83;74.61;101535.31;5098245;28;9530;-59
2024/01/12 03:02:09;;;;;;;;;15.60;14.20;;;;;0.83;74.67;101537.94;5098951;28;8823;-60
2024/01/12 03:04:36;;;;;;;;;14.20;12.60;;;;;0.82;74.87;101536.19;5099353;28;8823;-59
2024/01/12 03:07:04;;;;;;;;;17.60;16.00;;;;;0.83;74.64;101536.16;5099884;28;8827;-60
2024/01/12 03:09:32;;;;;;;;;13.60;12.80;;;;;0.84;74.77;101543.13;5098718;28;8828;-59
2024/01/12 03:12:00;;;;;;;;;14.20;13.60;;;;;0.85;74.75;101534.38;5099202;28;8823;-60
2024/01/12 03:14:27;;;;;;;;;9.20;6.60;;;;;0.86;74.70;101537.88;5099565;28;8816;-59
2024/01/12 03:16:55;;;;;;;;;12.00;12.00;;;;;0.88;74.84;101541.34;5099178;28;8816;-57
2024/01/12 03:19:22;;;;;;;;;13.20;11.80;;;;;0.88;74.84;101536.09;5098861;28;8804;-60
2024/01/12 03:21:50;;;;;;;;;12.40;10.00;;;;;0.90;75.23;101543.06;5099102;28;9474;-60
2024/01/12 03:24:18;;;;;;;;;12.00;11.60;;;;;0.91;75.09;101539.53;5099088;28;8861;-58
2024/01/12 03:26:46;;;;;;;;;15.00;13.80;;;;;0.92;75.18;101535.19;5098218;28;8848;-60
2024/01/12 03:29:14;;;;;;;;;10.20;8.80;;;;;0.91;74.80;101525.59;5097447;28;8824;-60
2024/01/12 03:31:42;;;;;;;;;13.80;13.40;;;;;0.90;74.93;101522.09;5097582;28;8841;-60
2024/01/12 03:34:10;;;;;;;;;12.00;11.80;;;;;0.90;74.61;101521.19;5098796;28;8884;-60
2024/01/12 03:36:38;;;;;;;;;12.80;12.60;;;;;0.89;74.74;101516.84;5098497;28;8837;-59
2024/01/12 03:39:06;;;;;;;;;5.40;5.40;;;;;0.88;75.33;101529.13;5098652;28;8893;-58
2024/01/12 03:41:34;;;;;;;;;9.40;9.40;;;;;0.87;74.98;101527.38;5097394;28;8829;-59
2024/01/12 03:44:02;;;;;;;;;1.80;0.00;;;;;0.86;74.91;101528.25;5097583;28;8849;-58
2024/01/12 03:46:29;;;;;;;;;12.40;11.20;;;;;0.87;74.83;101529.13;5098339;28;8833;-60
2024/01/12 03:48:57;;;;;;;;;8.80;6.80;;;;;0.86;75.31;101530.88;5098048;28;8947;-60
2024/01/12 03:51:25;;;;;;;;;7.40;7.40;;;;;0.87;75.10;101535.25;5098499;28;8813;-60
2024/01/12 03:53:53;;;;;;;;;4.80;4.40;;;;;0.88;74.83;101521.25;5098625;28;8821;-60
2024/01/12 03:56:21;;;;;;;;;13.80;10.60;;;;;0.90;75.21;101527.31;5097387;28;8849;-60
2024/01/12 03:58:49;;;;;;;;;7.80;7.00;;;;;0.92;75.06;101520.28;5097204;28;8829;-60
2024/01/12 04:01:17;;;;;;;;;13.80;10.60;;;;;0.94;75.06;101520.28;5097201;28;8821;-60
2024/01/12 04:03:45;;;;;;;;;6.60;6.00;;;;;0.94;74.79;101513.28;5098637;28;8829;-60
2024/01/12 04:06:13;;;;;;;;;6.20;3.40;;;;;0.96;75.28;101502.75;5098468;28;8841;-59
2024/01/12 04:08:41;;;;;;;;;10.00;9.80;;;;;0.98;75.42;101509.72;5098194;28;8829;-60
2024/01/12 04:11:09;;;;;;;;;9.00;7.00;;;;;1.00;75.75;101494.81;5097636;28;8948;-60
2024/01/12 04:13:37;;;;;;;;;13.80;12.00;;;;;1.02;74.58;101508.78;5097152;28;8817;-60
2024/01/12 04:16:05;;;;;;;;;12.00;8.60;;;;;1.03;74.89;101507.00;5096770;28;8958;-57
2024/01/12 04:18:32;;;;;;;;;6.80;6.60;;;;;1.05;74.70;101507.84;5098109;28;8984;-60
2024/01/12 04:21:01;;;;;;;;;1.40;1.40;;;;;1.05;74.71;101499.97;5097427;28;8845;-58
2024/01/12 04:23:28;;;;;;;;;9.60;9.00;;;;;1.06;74.96;101513.09;5098173;28;8814;-57
2024/01/12 04:25:56;;;;;;;;;12.80;12.40;;;;;1.06;75.56;101509.59;5097718;28;8902;-59
2024/01/12 04:28:24;;;;;;;;;9.00;8.60;;;;;1.08;74.94;101503.41;5096918;28;8846;-60
2024/01/12 04:30:52;;;;;;;;;12.60;11.60;;;;;1.09;74.89;101501.69;5087415;28;8852;-59
2024/01/12 04:33:20;;;;;;;;;13.20;11.80;;;;;1.11;75.41;101503.41;5092296;28;8837;-59
2024/01/12 04:35:48;;;;;;;;;5.00;3.20;;;;;1.11;75.22;101505.13;5097316;28;8822;-57
2024/01/12 04:38:15;;;;;;;;;4.00;3.40;;;;;1.11;74.88;101499.88;5097548;28;8841;-59
2024/01/12 04:40:45;;;;;;;;;11.60;10.00;;;;;1.09;75.42;101497.31;5097759;28;8910;-57
2024/01/12 04:43:13;;;;;;;;;12.80;10.80;;;;;1.08;75.27;101489.47;5096611;28;8837;-59
2024/01/12 04:45:40;;;;;;;;;17.60;13.80;;;;;1.07;75.42;101482.50;5097556;28;8821;-59
2024/01/12 04:48:10;;;;;;;;;9.60;8.60;;;;;1.08;75.14;101481.59;5097618;28;8830;-59
2024/01/12 04:50:38;;;;;;;;;15.20;12.60;;;;;1.05;75.52;101479.88;5097490;28;8826;-58
2024/01/12 04:53:05;;;;;;;;;13.40;12.40;;;;;1.04;75.30;101472.91;5097179;28;9550;-59
2024/01/12 04:55:33;;;;;;;;;12.00;12.00;;;;;1.04;75.23;101478.16;5097268;28;8830;-58
2024/01/12 04:58:03;;;;;;;;;12.80;11.40;;;;;1.05;75.19;101474.63;5096993;28;8840;-57
2024/01/12 05:00:30;;;;;;;;;17.20;13.00;;;;;1.04;75.96;101478.16;5087375;28;8936;-58
2024/01/12 05:02:59;;;;;;;;;15.20;12.80;;;;;1.05;75.90;101479.88;5096380;28;9527;-59
2024/01/12 05:05:26;;;;;;;;;12.20;12.20;;;;;1.08;75.19;101492.94;5094018;28;8822;-59
2024/01/12 05:07:54;;;;;;;;;6.60;5.40;;;;;1.08;75.44;101495.56;5075538;28;8902;-59
2024/01/12 05:10:22;;;;;;;;;3.00;3.00;;;;;1.09;75.57;101493.81;5075452;28;8816;-57
2024/01/12 05:12:49;;;;;;;;;3.00;3.00;;;;;1.07;75.63;101499.06;5074826;28;8831;-59
2024/01/12 05:15:17;;;;;;;;;5.60;5.60;;;;;1.08;75.62;101497.31;5075867;28;8815;-59
2024/01/12 05:17:45;;;;;;;;;8.20;8.20;;;;;1.07;75.38;101491.22;5091346;28;8844;-60
2024/01/12 05:20:13;;;;;;;;;3.00;2.60;;;;;1.07;76.08;101501.69;5096613;28;8844;-58
2024/01/12 05:22:41;;;;;;;;;6.80;6.80;;;;;1.08;76.16;101499.94;5096357;28;8812;-59
2024/01/12 05:25:09;;;;;;;;;6.20;6.20;;;;;1.08;75.75;101505.19;5096334;28;9481;-58
2024/01/12 05:27:37;;;;;;;;;3.60;3.60;;;;;1.08;76.00;101513.91;5095357;28;8835;-57
2024/01/12 05:30:05;;;;;;;;;5.60;5.20;;;;;1.09;75.96;101523.53;5095566;28;8816;-58
2024/01/12 05:32:33;;;;;;;;;6.00;4.00;;;;;1.10;75.44;101522.66;5096238;28;8875;-57
2024/01/12 05:35:02;;;;;;;;;10.60;7.60;;;;;1.11;76.27;101518.25;5096591;28;8850;-60
2024/01/12 05:37:29;;;;;;;;;9.60;8.20;;;;;1.11;75.38;101529.63;5096340;28;8889;-58
2024/01/12 05:39:58;;;;;;;;;13.60;11.80;;;;;1.10;75.90;101527.00;5096008;28;8843;-58
2024/01/12 05:42:26;;;;;;;;;6.40;5.20;;;;;1.11;75.49;101532.25;5094753;28;9219;-59
2024/01/12 05:44:54;;;;;;;;;6.20;6.00;;;;;1.11;76.21;101537.50;5095231;28;8846;-59
2024/01/12 05:47:21;;;;;;;;;6.60;6.00;;;;;1.11;75.45;101534.88;5095162;28;8852;-60
2024/01/12 05:49:49;;;;;;;;;6.60;5.60;;;;;1.11;76.17;101532.25;5095224;28;8833;-58
2024/01/12 05:52:17;;;;;;;;;2.20;1.00;;;;;1.12;76.12;101536.59;5096093;28;8833;-57
2024/01/12 05:54:45;;;;;;;;;3.80;3.80;;;;;1.12;76.38;101527.84;5096096;28;8936;-58
2024/01/12 05:57:12;;;;;;;;;5.20;4.00;;;;;1.12;76.33;101526.09;5094917;28;8919;-58
2024/01/12 05:59:40;;;;;;;;;4.40;4.40;;;;;1.13;76.12;101524.34;5094284;28;8822;-58
2024/01/12 06:02:08;;;;;;;;;1.60;1.40;;;;;1.12;75.91;101520.84;5094184;28;8913;-60
2024/01/12 06:04:36;;;;;;;;;3.60;3.00;;;;;1.13;76.07;101506.84;5094568;28;8821;-57
2024/01/12 06:07:04;;;;;;;;;6.60;6.60;;;;;1.13;75.82;101508.63;5093396;28;8834;-59
2024/01/12 06:09:31;;;;;;;;;2.60;2.20;;;;;1.13;76.44;101506.84;5095225;28;8840;-59
2024/01/12 06:11:59;;;;;;;;;8.60;5.60;;;;;1.13;75.92;101508.63;5095247;28;8835;-59
2024/01/12 06:14:27;;;;;;;;;6.80;6.20;;;;;1.12;76.24;101505.13;5094892;28;8812;-57
2024/01/12 06:16:55;;;;;;;;;8.80;8.20;;;;;1.13;75.99;101522.59;5095129;28;9019;-60
2024/01/12 06:19:22;;;;;;;;;5.20;5.20;;;;;1.12;75.69;101513.00;5094592;28;8850;-60
2024/01/12 06:21:50;;;;;;;;;3.80;3.20;;;;;1.13;76.07;101506.84;5093770;28;8830;-60
2024/01/12 06:24:18;;;;;;;;;5.20;3.00;;;;;1.13;75.87;101498.97;5093407;28;8850;-60
2024/01/12 06:26:46;;;;;;;;;6.80;5.60;;;;;1.16;76.07;101493.66;5092813;28;8834;-57
2024/01/12 06:29:14;;;;;;;;;4.60;3.60;;;;;1.18;76.52;101491.03;5092513;28;8849;-59
2024/01/12 06:31:42;;;;;;;;;3.40;3.40;;;;;1.20;75.96;101487.50;5093911;28;9016;-57
2024/01/12 06:34:09;;;;;;;;;5.20;4.00;;;;;1.21;75.86;101476.09;5093638;28;9870;-60
2024/01/12 06:36:37;;;;;;;;;5.60;3.60;;;;;1.23;76.55;101476.94;5081073;28;8835;-57
2024/01/12 06:39:05;;;;;;;;;3.00;1.00;;;;;1.21;76.05;101472.63;5071983;28;8852;-58
2024/01/12 06:41:33;;;;;;;;;3.80;2.20;;;;;1.20;76.00;101484.88;5073024;28;8832;-57
2024/01/12 06:44:00;;;;;;;;;0.00;0.00;;;;;1.20;76.17;101479.63;5073512;28;8831;-60
2024/01/12 06:46:28;;;;;;;;;2.20;2.20;;;;;1.20;75.88;101468.25;5073994;28;8856;-60
2024/01/12 06:48:56;;;;;;;;;1.40;1.40;;;;;1.21;76.02;101480.50;5073753;28;8816;-60
2024/01/12 06:51:24;;;;;;;;;0.60;0.60;;;;;1.19;76.50;101484.88;5073285;28;8913;-58
2024/01/12 06:53:52;;;;;;;;;1.00;1.00;;;;;1.18;76.66;101476.16;5073244;28;8933;-58
2024/01/12 06:56:19;;;;;;;;;4.20;4.20;;;;;1.17;76.75;101476.19;5073419;28;9517;-59
2024/01/12 06:58:47;;;;;;;;;3.00;3.00;;;;;1.14;76.36;101474.47;5073796;28;9494;-59
2024/01/12 07:01:15;;;;;;;;;1.00;0.80;;;;;1.14;76.29;101477.09;5073656;28;8862;-60
2024/01/12 07:03:43;;;;;;;;;1.00;1.00;;;;;1.13;76.31;101483.25;5073699;28;8836;-58
2024/01/12 07:06:11;;;;;;;;;0.20;0.20;;;;;1.15;77.02;101486.69;5073176;28;8845;-57
2024/01/12 07:08:39;;;;;;;;;3.00;1.80;;;;;1.16;76.62;101485.81;5072313;28;8832;-57
2024/01/12 07:11:07;;;;;;;;;1.40;1.40;;;;;1.16;76.72;101491.03;5073212;28;8824;-59
2024/01/12 07:13:35;;;;;;;;;3.00;2.20;;;;;1.17;76.74;101489.31;5073373;28;8879;-59
2024/01/12 07:16:04;;;;;;;;;3.40;3.40;;;;;1.16;76.83;101490.19;5074014;28;8858;-58
2024/01/12 07:18:32;;;;;;;;;1.00;1.00;;;;;1.15;76.45;101486.69;5093969;28;8872;-60
2024/01/12 07:21:03;;;;;;;;;4.00;3.00;;;;;1.15;76.43;101491.09;5093891;28;8841;-58
2024/01/12 07:23:31;;;;;;;;;1.40;1.40;;;;;1.14;76.46;101484.97;5094317;28;8838;-59
2024/01/12 07:26:00;;;;;;;;;5.80;5.20;;;;;1.13;76.74;101483.25;5096629;28;8914;-58
2024/01/12 07:28:28;;;;;;;;;4.00;3.00;;;;;1.14;76.20;101484.97;5101179;28;8842;-60
2024/01/12 07:30:57;;;;;;;;;3.00;3.00;;;;;1.11;76.09;101490.28;5101868;28;8841;-58
2024/01/12 07:33:26;;;;;;;;;3.80;3.80;;;;;1.11;76.92;101489.41;5097145;28;8850;-57
2024/01/12 07:35:55;;;;;;;;;3.00;3.00;;;;;1.09;76.74;101501.69;5096473;28;8838;-59
2024/01/12 07:38:23;;;;;;;;;1.00;1.00;;;;;1.06;76.86;101494.72;5097163;28;8848;-57
2024/01/12 07:40:50;;;;;;;;;3.00;1.00;;;;;1.05;76.60;101487.75;5096925;28;8846;-58
2024/01/12 07:43:19;;;;;;;;;3.60;2.60;;;;;1.05;76.95;101486.88;5096701;28;8838;-58
2024/01/12 07:45:46;;;;;;;;;1.00;1.00;;;;;1.05;77.05;101484.25;5096808;28;10338;-59
2024/01/12 07:48:14;;;;;;;;;1.00;1.00;;;;;1.05;77.04;101479.00;5096715;28;8850;-58
2024/01/12 07:50:42;;;;;;;;;3.00;3.00;;;;;1.05;76.81;101489.50;5097603;28;8818;-60
2024/01/12 07:53:10;;;;;;;;;1.80;1.80;;;;;1.06;77.24;101491.25;5097442;28;8818;-58
2024/01/12 07:55:38;;;;;;;;;6.60;4.00;;;;;1.07;77.15;101492.97;5096696;28;8845;-58
2024/01/12 07:58:06;;;;;;;;;6.20;6.20;;;;;1.06;76.67;101497.34;5096529;28;8891;-60
2024/01/12 08:00:33;;;;;;;;;6.00;4.00;;;;;1.07;76.69;101501.69;5096619;28;8956;-59
2024/01/12 08:03:02;;;;;;;;;3.00;1.80;;;;;1.07;76.42;101506.94;5096026;28;8833;-58
2024/01/12 08:05:30;;;;;;;;;1.00;0.80;;;;;1.08;76.70;101515.69;5096688;28;8968;-58
2024/01/12 08:08:01;;;;;;;;;4.80;4.80;;;;;1.08;76.96;101510.44;5096801;28;9503;-59
2024/01/12 08:10:29;;;;;;;;;5.60;4.40;;;;;1.08;76.85;101510.44;5096912;28;8834;-59
2024/01/12 08:12:57;;;;;;;;;7.40;6.40;;;;;1.08;76.72;101516.53;5097548;28;8907;-59
2024/01/12 08:15:24;;;;;;;;;0.60;0.60;;;;;1.08;77.18;101524.41;5097608;28;8949;-58
2024/01/12 08:17:52;;;;;;;;;6.40;5.60;;;;;1.07;76.64;101519.19;5097708;28;8860;-58
2024/01/12 08:20:20;;;;;;;;;5.60;5.60;;;;;1.07;76.94;101520.06;5096786;28;8941;-57
2024/01/12 08:22:48;;;;;;;;;5.80;3.80;;;;;1.08;76.82;101516.53;5097092;28;8822;-58
2024/01/12 08:25:16;;;;;;;;;7.80;6.80;;;;;1.09;76.79;101526.16;5096795;28;9548;-60
2024/01/12 08:27:44;;;;;;;;;9.60;9.40;;;;;1.11;77.48;101527.00;5097575;28;8834;-60
2024/01/12 08:30:12;;;;;;;;;13.40;12.20;;;;;1.10;76.71;101512.16;5097372;28;8902;-60
2024/01/12 08:32:40;;;;;;;;;5.20;5.00;;;;;1.12;77.08;101513.00;5097365;28;8825;-60
2024/01/12 08:35:11;;;;;;;;;8.20;5.20;;;;;1.12;76.73;101520.84;5097380;28;8829;-60
2024/01/12 08:37:39;;;;;;;;;3.20;3.00;;;;;1.14;77.31;101528.72;5096917;28;8830;-60
2024/01/12 08:40:07;;;;;;;;;9.60;7.00;;;;;1.16;77.02;101529.53;5095829;28;8844;-58
2024/01/12 08:42:37;;;;;;;;;6.80;6.00;;;;;1.18;77.53;101514.63;5095854;28;8821;-59
2024/01/12 08:45:05;;;;;;;;;12.00;9.00;;;;;1.19;76.73;101534.72;5096590;28;8857;-59
2024/01/12 08:47:33;;;;;;;;;12.20;9.20;;;;;1.19;77.57;101532.97;5096519;28;8854;-59
2024/01/12 08:50:01;;;;;;;;;12.00;9.00;;;;;1.20;76.67;101518.97;5096176;28;9590;-59
2024/01/12 08:52:29;;;;;;;;;1.00;0.80;;;;;1.21;77.22;101514.59;5095827;28;8810;-60
2024/01/12 08:54:56;;;;;;;;;9.00;6.40;;;;;1.20;76.67;101513.72;5095646;28;8822;-59
2024/01/12 08:57:23;;;;;;;;;8.40;8.40;;;;;1.22;76.89;101511.09;5096263;28;8829;-60
2024/01/12 08:59:51;;;;;;;;;10.80;8.60;;;;;1.20;76.89;101510.22;5096149;28;8844;-58
2024/01/12 09:02:19;;;;;;;;;10.40;9.80;;;;;1.18;76.95;101518.13;5096269;28;8830;-58
2024/01/12 09:04:47;;;;;;;;;6.80;6.40;;;;;1.17;77.44;101507.66;5096708;28;8834;-56
2024/01/12 09:07:15;;;;;;;;;11.00;6.80;;;;;1.18;77.20;101507.66;5096607;28;8857;-58
2024/01/12 09:09:44;;;;;;;;;5.00;3.80;;;;;1.18;76.78;101502.41;5096642;28;8834;-59
2024/01/12 09:12:12;;;;;;;;;0.80;0.80;;;;;1.18;76.97;101509.38;5096206;28;8972;-57
2024/01/12 09:14:40;;;;;;;;;4.40;4.40;;;;;1.17;76.95;101510.28;5096779;28;8840;-59
2024/01/12 09:17:08;;;;;;;;;4.00;4.00;;;;;1.16;77.00;101513.81;5095702;28;8842;-59
2024/01/12 09:19:36;;;;;;;;;4.00;4.00;;;;;1.14;77.14;101511.19;5095570;28;8862;-57
2024/01/12 09:22:04;;;;;;;;;11.20;10.40;;;;;1.14;77.40;101519.06;5095473;28;8837;-57
2024/01/12 09:24:32;;;;;;;;;3.80;3.80;;;;;1.13;77.43;101514.72;5095737;28;8922;-60
2024/01/12 09:27:00;;;;;;;;;10.80;9.00;;;;;1.12;77.02;101509.47;5095810;28;8906;-58
2024/01/12 09:29:28;;;;;;;;;4.00;3.80;;;;;1.12;77.43;101522.59;5096312;28;8968;-58
2024/01/12 09:31:56;;;;;;;;;8.20;6.20;;;;;1.11;77.64;101521.75;5094606;28;8829;-59
2024/01/12 09:34:24;;;;;;;;;6.00;4.00;;;;;1.15;77.58;101527.81;5095632;28;8960;-58
2024/01/12 09:36:53;;;;;;;;;4.80;4.40;;;;;1.17;77.66;101520.78;5095881;28;8826;-60
2024/01/12 09:39:22;;;;;;;;;7.00;6.00;;;;;1.19;77.21;101525.13;5095897;28;8910;-59
2024/01/12 09:41:52;;;;;;;;;6.40;6.00;;;;;1.20;77.67;101523.34;5095984;28;8983;-57
2024/01/12 09:44:20;;;;;;;;;5.20;4.00;;;;;1.20;77.44;101525.97;5094980;28;8918;-59
2024/01/12 09:46:48;;;;;;;;;3.40;3.20;;;;;1.20;77.67;101537.34;5094262;28;8854;-58
2024/01/12 09:49:16;;;;;;;;;3.00;3.00;;;;;1.22;77.28;101519.81;5094552;28;8846;-58
2024/01/12 09:51:44;;;;;;;;;2.60;2.60;;;;;1.27;77.27;101531.09;5094725;28;8850;-60
2024/01/12 09:54:12;;;;;;;;;5.00;5.00;;;;;1.28;77.71;101521.47;5094626;28;8818;-59
2024/01/12 09:56:40;;;;;;;;;3.00;3.00;;;;;1.29;77.21;101520.59;5094750;28;8838;-57
2024/01/12 09:59:13;;;;;;;;;5.60;5.20;;;;;1.29;76.91;101521.44;5094675;28;8849;-57
2024/01/12 10:01:41;;;;;;;;;6.00;6.00;;;;;1.31;76.97;101521.41;5094037;28;8851;-59
2024/01/12 10:04:08;;;;;;;;;4.60;4.60;;;;;1.33;76.98;101511.75;5094048;28;8822;-58
2024/01/12 10:06:36;;;;;;;;;3.20;3.20;;;;;1.34;77.81;101521.34;5094395;28;8876;-59
2024/01/12 10:09:04;;;;;;;;;7.00;6.00;;;;;1.35;77.54;101521.34;5094491;28;8834;-57
2024/01/12 10:11:33;;;;;;;;;4.00;3.00;;;;;1.36;77.48;101504.69;5094597;28;8972;-58
2024/01/12 10:14:01;;;;;;;;;6.60;5.20;;;;;1.36;77.10;101516.97;5094249;28;8825;-58
2024/01/12 10:16:29;;;;;;;;;6.00;6.00;;;;;1.35;77.34;101516.09;5093816;28;8906;-57
2024/01/12 10:18:57;;;;;;;;;6.60;6.00;;;;;1.35;77.62;101518.72;5094105;28;8850;-57
2024/01/12 10:21:26;;;;;;;;;3.40;1.80;;;;;1.34;77.59;101517.00;5094291;28;8968;-57
2024/01/12 10:23:53;;;;;;;;;4.60;3.80;;;;;1.33;77.06;101502.16;5094291;28;8902;-58
2024/01/12 10:26:21;;;;;;;;;3.00;3.00;;;;;1.33;77.06;101493.38;5094774;28;8842;-57
2024/01/12 10:28:50;;;;;;;;;7.00;7.00;;;;;1.31;77.21;101503.91;5094912;28;8968;-57
2024/01/12 10:31:18;;;;;;;;;3.40;3.40;;;;;1.31;78.03;101497.81;5094489;28;8834;-58
2024/01/12 10:33:46;;;;;;;;;7.60;7.20;;;;;1.28;77.35;101501.34;5094354;28;8940;-58
2024/01/12 10:36:14;;;;;;;;;9.20;9.00;;;;;1.29;77.29;101489.94;5093955;28;8833;-57
2024/01/12 10:38:42;;;;;;;;;8.20;7.00;;;;;1.30;77.58;101494.31;5093989;28;8927;-58
2024/01/12 10:41:10;;;;;;;;;6.80;6.80;;;;;1.30;77.54;101494.31;5093275;28;8829;-60
2024/01/12 10:43:38;;;;;;;;;8.20;6.60;;;;;1.29;77.50;101499.59;5093948;28;8872;-59
2024/01/12 10:46:06;;;;;;;;;6.20;6.20;;;;;1.27;77.69;101491.75;5093752;28;8825;-59
2024/01/12 10:48:34;;;;;;;;;7.00;6.00;;;;;1.23;77.75;101484.81;5093753;28;8972;-57
2024/01/12 10:51:02;;;;;;;;;7.20;6.40;;;;;1.21;78.09;101475.25;5093918;28;8822;-59
2024/01/12 10:53:30;;;;;;;;;4.40;4.40;;;;;1.22;78.21;101480.47;5094436;28;8849;-60
2024/01/12 10:55:58;;;;;;;;;6.00;4.40;;;;;1.22;77.96;101471.75;5094417;28;8844;-59
2024/01/12 10:58:26;;;;;;;;;6.60;6.00;;;;;1.22;77.90;101469.97;5093689;28;8830;-57
2024/01/12 11:00:54;;;;;;;;;4.00;4.00;;;;;1.22;77.43;101467.34;5097122;28;8948;-58
2024/01/12 11:03:22;;;;;;;;;5.60;5.20;;;;;1.23;77.25;101474.31;5098087;28;8861;-57
2024/01/12 11:05:50;;;;;;;;;4.00;3.60;;;;;1.23;78.17;101463.81;5098465;28;8822;-57
2024/01/12 11:08:19;;;;;;;;;6.20;4.80;;;;;1.21;77.78;101455.13;5098197;28;9736;-60
2024/01/12 11:10:47;;;;;;;;;2.80;2.80;;;;;1.21;77.48;101457.75;5098084;28;8822;-58
2024/01/12 11:13:16;;;;;;;;;5.80;3.60;;;;;1.24;77.59;101455.09;5098384;28;8883;-57
2024/01/12 11:15:44;;;;;;;;;3.00;3.00;;;;;1.26;77.47;101453.28;5097937;28;8859;-58
2024/01/12 11:18:13;;;;;;;;;3.40;3.00;;;;;1.28;78.03;101461.16;5097623;28;8834;-57
2024/01/12 11:20:43;;;;;;;;;6.20;5.20;;;;;1.28;77.67;101456.75;5096264;28;8833;-58
2024/01/12 11:23:11;;;;;;;;;4.20;4.20;;;;;1.27;78.25;101465.50;5096305;28;8830;-59
2024/01/12 11:25:39;;;;;;;;;5.60;4.80;;;;;1.27;78.14;101475.13;5096336;28;8829;-57
2024/01/12 11:28:07;;;;;;;;;7.60;6.80;;;;;1.26;77.57;101471.66;5095570;28;8870;-57
2024/01/12 11:30:35;;;;;;;;;8.60;5.20;;;;;1.27;78.17;101470.75;5095194;28;8833;-58
2024/01/12 11:33:03;;;;;;;;;9.60;7.00;;;;;1.27;78.28;101465.50;5094808;28;8918;-58
2024/01/12 11:35:32;;;;;;;;;7.00;5.60;;;;;1.28;78.11;101469.88;5094768;28;8830;-57
2024/01/12 11:38:00;;;;;;;;;6.00;4.00;;;;;1.29;77.73;101476.84;5094533;28;8822;-57
2024/01/12 11:40:28;;;;;;;;;8.40;8.40;;;;;1.32;77.89;101470.69;5094728;28;8857;-57